sensor_id;sensor_type;location;lat;lon;timestamp;pressure;altitude;pressure_sealevel;temperature;humidity
80164;BME280;70071;55.130;61.268;2024-03-06T00:02:11;98452.78;;;4.29;39.69
80164;BME280;70071;55.130;61.268;2024-03-06T00:04:37;98490.13;;;4.49;40.16
80164;BME280;70071;55.130;61.268;2024-03-06T00:07:04;98449.41;;;4.53;39.52
80164;BME280;70071;55.130;61.268;2024-03-06T00:09:30;98460.94;;;4.18;39.73
80164;BME280;70071;55.130;61.268;2024-03-06T00:11:57;98485.81;;;4.40;39.88
80164;BME280;70071;55.130;61.268;2024-03-06T00:14:23;98448.59;;;4.10;40.75
80164;BME280;70071;55.130;61.268;2024-03-06T00:16:50;98475.25;;;3.97;40.68
80164;BME280;70071;55.130;61.268;2024-03-06T00:19:19;98473.75;;;4.21;40.34
80164;BME280;70071;55.130;61.268;2024-03-06T00:21:46;98485.31;;;4.36;40.30
80164;BME280;70071;55.130;61.268;2024-03-06T00:24:16;98489.16;;;4.50;40.19
80164;BME280;70071;55.130;61.268;2024-03-06T00:26:43;98436.78;;;4.14;39.88
80164;BME280;70071;55.130;61.268;2024-03-06T00:29:10;98481.72;;;4.37;39.90
80164;BME280;70071;55.130;61.268;2024-03-06T00:31:37;98471.63;;;4.24;40.70
80164;BME280;70071;55.130;61.268;2024-03-06T00:34:07;98445.50;;;4.15;40.24
80164;BME280;70071;55.130;61.268;2024-03-06T00:36:34;98458.16;;;4.19;40.76
80164;BME280;70071;55.130;61.268;2024-03-06T00:39:00;98470.13;;;4.22;40.36
80164;BME280;70071;55.130;61.268;2024-03-06T00:41:26;98450.75;;;3.62;41.10
80164;BME280;70071;55.130;61.268;2024-03-06T00:43:52;98452.78;;;3.50;41.80
80164;BME280;70071;55.130;61.268;2024-03-06T00:46:17;98461.50;;;3.51;41.63
80164;BME280;70071;55.130;61.268;2024-03-06T00:48:43;98464.88;;;3.87;40.59
80164;BME280;70071;55.130;61.268;2024-03-06T00:51:09;98461.41;;;3.43;41.65
80164;BME280;70071;55.130;61.268;2024-03-06T00:53:35;98446.56;;;3.51;41.31
80164;BME280;70071;55.130;61.268;2024-03-06T00:56:02;98420.06;;;3.18;41.31
80164;BME280;70071;55.130;61.268;2024-03-06T00:58:28;98432.19;;;3.55;41.60
80164;BME280;70071;55.130;61.268;2024-03-06T01:00:54;98450.53;;;3.55;40.86
80164;BME280;70071;55.130;61.268;2024-03-06T01:03:21;98451.97;;;3.32;41.57
80164;BME280;70071;55.130;61.268;2024-03-06T01:05:46;98480.16;;;3.48;41.93
80164;BME280;70071;55.130;61.268;2024-03-06T01:08:12;98474.66;;;3.05;42.45
80164;BME280;70071;55.130;61.268;2024-03-06T01:10:39;98467.66;;;3.42;42.18
80164;BME280;70071;55.130;61.268;2024-03-06T01:13:05;98458.47;;;3.64;41.15
80164;BME280;70071;55.130;61.268;2024-03-06T01:15:31;98457.50;;;3.65;40.87
80164;BME280;70071;55.130;61.268;2024-03-06T01:17:58;98456.75;;;3.54;40.78
80164;BME280;70071;55.130;61.268;2024-03-06T01:20:24;98461.94;;;3.90;40.42
80164;BME280;70071;55.130;61.268;2024-03-06T01:22:50;98460.03;;;3.56;41.01
80164;BME280;70071;55.130;61.268;2024-03-06T01:25:16;98443.78;;;3.53;41.41
80164;BME280;70071;55.130;61.268;2024-03-06T01:27:43;98456.16;;;3.07;41.67
80164;BME280;70071;55.130;61.268;2024-03-06T01:30:09;98462.41;;;3.86;41.21
80164;BME280;70071;55.130;61.268;2024-03-06T01:32:35;98456.59;;;3.56;40.49
80164;BME280;70071;55.130;61.268;2024-03-06T01:35:01;98469.69;;;4.00;40.28
80164;BME280;70071;55.130;61.268;2024-03-06T01:37:29;98454.09;;;3.99;40.03
80164;BME280;70071;55.130;61.268;2024-03-06T01:39:55;98448.06;;;3.80;40.47
80164;BME280;70071;55.130;61.268;2024-03-06T01:42:21;98456.72;;;3.99;39.95
80164;BME280;70071;55.130;61.268;2024-03-06T01:44:47;98445.19;;;3.65;40.18
80164;BME280;70071;55.130;61.268;2024-03-06T01:47:13;98468.81;;;3.65;40.16
80164;BME280;70071;55.130;61.268;2024-03-06T01:49:39;98472.00;;;3.77;41.08
80164;BME280;70071;55.130;61.268;2024-03-06T01:52:07;98462.06;;;3.63;40.58
80164;BME280;70071;55.130;61.268;2024-03-06T01:54:35;98431.91;;;3.67;39.90
80164;BME280;70071;55.130;61.268;2024-03-06T01:57:01;98470.50;;;3.74;41.23
80164;BME280;70071;55.130;61.268;2024-03-06T01:59:28;98433.25;;;3.45;41.12
80164;BME280;70071;55.130;61.268;2024-03-06T02:01:55;98444.28;;;3.12;41.61
80164;BME280;70071;55.130;61.268;2024-03-06T02:04:22;98475.06;;;3.28;41.78
80164;BME280;70071;55.130;61.268;2024-03-06T02:06:49;98441.03;;;3.00;42.16
80164;BME280;70071;55.130;61.268;2024-03-06T02:09:15;98433.28;;;3.09;41.48
80164;BME280;70071;55.130;61.268;2024-03-06T02:11:41;98475.56;;;3.68;40.69
80164;BME280;70071;55.130;61.268;2024-03-06T02:14:09;98477.28;;;3.85;41.06
80164;BME280;70071;55.130;61.268;2024-03-06T02:16:36;98464.78;;;3.53;40.60
80164;BME280;70071;55.130;61.268;2024-03-06T02:19:24;98456.03;;;3.26;41.27
80164;BME280;70071;55.130;61.268;2024-03-06T02:21:52;98412.16;;;3.10;41.57
80164;BME280;70071;55.130;61.268;2024-03-06T02:24:18;98477.56;;;3.74;40.40
80164;BME280;70071;55.130;61.268;2024-03-06T02:26:44;98456.78;;;3.36;41.48
80164;BME280;70071;55.130;61.268;2024-03-06T02:29:10;98469.13;;;3.26;42.03
80164;BME280;70071;55.130;61.268;2024-03-06T02:31:36;98485.97;;;3.60;41.24
80164;BME280;70071;55.130;61.268;2024-03-06T02:34:02;98442.56;;;3.21;40.68
80164;BME280;70071;55.130;61.268;2024-03-06T02:36:32;98460.41;;;3.17;41.31
80164;BME280;70071;55.130;61.268;2024-03-06T02:38:58;98481.53;;;3.16;41.97
80164;BME280;70071;55.130;61.268;2024-03-06T02:41:24;98457.47;;;3.20;41.48
80164;BME280;70071;55.130;61.268;2024-03-06T02:43:50;98458.38;;;3.11;42.55
80164;BME280;70071;55.130;61.268;2024-03-06T02:46:17;98484.78;;;3.54;41.57
80164;BME280;70071;55.130;61.268;2024-03-06T02:48:43;98481.72;;;3.23;42.85
80164;BME280;70071;55.130;61.268;2024-03-06T02:51:09;98471.44;;;3.47;42.23
80164;BME280;70071;55.130;61.268;2024-03-06T02:53:35;98474.97;;;3.20;42.28
80164;BME280;70071;55.130;61.268;2024-03-06T02:56:01;98478.75;;;3.17;43.09
80164;BME280;70071;55.130;61.268;2024-03-06T02:58:26;98480.06;;;3.22;42.59
80164;BME280;70071;55.130;61.268;2024-03-06T03:00:57;98438.72;;;3.33;42.62
80164;BME280;70071;55.130;61.268;2024-03-06T03:03:22;98463.53;;;3.39;41.94
80164;BME280;70071;55.130;61.268;2024-03-06T03:05:50;98458.63;;;3.62;41.20
80164;BME280;70071;55.130;61.268;2024-03-06T03:08:16;98453.38;;;3.44;41.87
80164;BME280;70071;55.130;61.268;2024-03-06T03:10:42;98491.47;;;3.48;42.43
80164;BME280;70071;55.130;61.268;2024-03-06T03:13:08;98463.50;;;3.57;41.58
80164;BME280;70071;55.130;61.268;2024-03-06T03:15:34;98451.81;;;3.51;41.81
80164;BME280;70071;55.130;61.268;2024-03-06T03:18:00;98463.31;;;3.77;42.12
80164;BME280;70071;55.130;61.268;2024-03-06T03:20:25;98464.69;;;3.63;41.38
80164;BME280;70071;55.130;61.268;2024-03-06T03:22:52;98486.25;;;3.74;42.05
80164;BME280;70071;55.130;61.268;2024-03-06T03:25:18;98456.09;;;3.52;42.26
80164;BME280;70071;55.130;61.268;2024-03-06T03:27:46;98466.75;;;3.51;41.91
80164;BME280;70071;55.130;61.268;2024-03-06T03:30:12;98477.88;;;3.71;41.92
80164;BME280;70071;55.130;61.268;2024-03-06T03:32:39;98460.25;;;3.19;42.20
80164;BME280;70071;55.130;61.268;2024-03-06T03:35:06;98465.59;;;3.35;42.13
80164;BME280;70071;55.130;61.268;2024-03-06T03:37:32;98490.97;;;3.27;42.27
80164;BME280;70071;55.130;61.268;2024-03-06T03:39:58;98478.34;;;3.12;42.36
80164;BME280;70071;55.130;61.268;2024-03-06T03:42:24;98498.53;;;3.30;43.43
80164;BME280;70071;55.130;61.268;2024-03-06T03:44:50;98489.00;;;3.47;42.93
80164;BME280;70071;55.130;61.268;2024-03-06T03:47:16;98497.16;;;3.26;42.70
80164;BME280;70071;55.130;61.268;2024-03-06T03:49:42;98468.75;;;3.03;43.25
80164;BME280;70071;55.130;61.268;2024-03-06T03:52:08;98485.84;;;3.25;43.58
80164;BME280;70071;55.130;61.268;2024-03-06T03:54:34;98482.63;;;3.49;43.18
80164;BME280;70071;55.130;61.268;2024-03-06T03:57:01;98474.69;;;3.41;42.29
80164;BME280;70071;55.130;61.268;2024-03-06T03:59:27;98478.56;;;3.37;42.25
80164;BME280;70071;55.130;61.268;2024-03-06T04:01:53;98476.13;;;3.17;42.51
80164;BME280;70071;55.130;61.268;2024-03-06T04:04:20;98487.09;;;2.85;42.73
80164;BME280;70071;55.130;61.268;2024-03-06T04:06:46;98497.16;;;3.88;41.49
80164;BME280;70071;55.130;61.268;2024-03-06T04:09:12;98489.91;;;4.34;40.80
80164;BME280;70071;55.130;61.268;2024-03-06T04:11:40;98491.44;;;4.19;40.75
80164;BME280;70071;55.130;61.268;2024-03-06T04:14:06;98485.72;;;3.45;41.39
80164;BME280;70071;55.130;61.268;2024-03-06T04:16:35;98482.41;;;3.25;41.99
80164;BME280;70071;55.130;61.268;2024-03-06T04:19:01;98478.53;;;3.73;41.36
80164;BME280;70071;55.130;61.268;2024-03-06T04:21:29;98494.97;;;3.75;41.31
80164;BME280;70071;55.130;61.268;2024-03-06T04:23:55;98447.47;;;3.42;42.26
80164;BME280;70071;55.130;61.268;2024-03-06T04:26:21;98463.47;;;3.75;41.19
80164;BME280;70071;55.130;61.268;2024-03-06T04:28:47;98486.56;;;1.59;45.54
80164;BME280;70071;55.130;61.268;2024-03-06T04:31:13;98462.41;;;1.28;47.69
80164;BME280;70071;55.130;61.268;2024-03-06T04:33:41;98474.22;;;1.22;47.65
80164;BME280;70071;55.130;61.268;2024-03-06T04:36:07;98476.13;;;1.10;48.49
80164;BME280;70071;55.130;61.268;2024-03-06T04:38:34;98488.72;;;0.76;49.11
80164;BME280;70071;55.130;61.268;2024-03-06T04:41:00;98482.44;;;0.98;49.67
80164;BME280;70071;55.130;61.268;2024-03-06T04:43:26;98480.78;;;0.87;50.10
80164;BME280;70071;55.130;61.268;2024-03-06T04:45:52;98476.41;;;1.17;49.10
80164;BME280;70071;55.130;61.268;2024-03-06T04:48:18;98455.22;;;0.91;49.46
80164;BME280;70071;55.130;61.268;2024-03-06T04:50:44;98464.84;;;1.19;49.07
80164;BME280;70071;55.130;61.268;2024-03-06T04:53:10;98456.56;;;0.85;49.61
80164;BME280;70071;55.130;61.268;2024-03-06T04:55:37;98486.69;;;0.89;50.05
80164;BME280;70071;55.130;61.268;2024-03-06T04:58:04;98491.50;;;0.84;50.48
80164;BME280;70071;55.130;61.268;2024-03-06T05:00:30;98464.84;;;1.00;49.69
80164;BME280;70071;55.130;61.268;2024-03-06T05:02:56;98479.94;;;0.26;51.40
80164;BME280;70071;55.130;61.268;2024-03-06T05:05:23;98492.88;;;0.88;50.53
80164;BME280;70071;55.130;61.268;2024-03-06T05:07:50;98468.69;;;1.64;49.16
80164;BME280;70071;55.130;61.268;2024-03-06T05:10:18;98484.34;;;2.59;46.99
80164;BME280;70071;55.130;61.268;2024-03-06T05:12:44;98470.31;;;3.50;45.21
80164;BME280;70071;55.130;61.268;2024-03-06T05:15:10;98462.16;;;3.79;44.01
80164;BME280;70071;55.130;61.268;2024-03-06T05:17:37;98476.47;;;4.11;42.45
80164;BME280;70071;55.130;61.268;2024-03-06T05:20:03;98473.84;;;4.11;42.59
80164;BME280;70071;55.130;61.268;2024-03-06T05:22:30;98467.50;;;4.22;41.81
80164;BME280;70071;55.130;61.268;2024-03-06T05:24:56;98491.19;;;4.30;42.08
80164;BME280;70071;55.130;61.268;2024-03-06T05:27:26;98408.34;;;3.49;41.62
80164;BME280;70071;55.130;61.268;2024-03-06T05:29:53;98451.63;;;4.32;41.01
80164;BME280;70071;55.130;61.268;2024-03-06T05:32:20;98482.56;;;4.46;40.56
80164;BME280;70071;55.130;61.268;2024-03-06T05:34:46;98449.59;;;4.60;39.98
80164;BME280;70071;55.130;61.268;2024-03-06T05:37:12;98466.13;;;4.44;39.70
80164;BME280;70071;55.130;61.268;2024-03-06T05:39:38;98496.19;;;4.92;39.76
80164;BME280;70071;55.130;61.268;2024-03-06T05:42:04;98482.28;;;5.16;39.70
80164;BME280;70071;55.130;61.268;2024-03-06T05:44:31;98508.13;;;5.38;39.67
80164;BME280;70071;55.130;61.268;2024-03-06T05:46:59;98492.28;;;5.13;38.79
80164;BME280;70071;55.130;61.268;2024-03-06T05:49:25;98499.19;;;4.55;38.88
80164;BME280;70071;55.130;61.268;2024-03-06T05:51:51;98466.81;;;5.22;38.62
80164;BME280;70071;55.130;61.268;2024-03-06T05:54:21;98499.00;;;4.99;37.47
80164;BME280;70071;55.130;61.268;2024-03-06T05:56:51;98487.50;;;5.00;37.50
80164;BME280;70071;55.130;61.268;2024-03-06T05:59:18;98482.28;;;5.25;37.84
80164;BME280;70071;55.130;61.268;2024-03-06T06:01:45;98456.47;;;5.61;37.17
80164;BME280;70071;55.130;61.268;2024-03-06T06:04:12;98494.00;;;5.63;36.53
80164;BME280;70071;55.130;61.268;2024-03-06T06:06:41;98487.00;;;6.28;36.08
80164;BME280;70071;55.130;61.268;2024-03-06T06:09:07;98474.06;;;6.50;35.67
80164;BME280;70071;55.130;61.268;2024-03-06T06:11:39;98482.56;;;6.29;34.50
80164;BME280;70071;55.130;61.268;2024-03-06T06:14:05;98458.41;;;6.17;35.30
80164;BME280;70071;55.130;61.268;2024-03-06T06:16:38;98469.09;;;6.07;34.38
80164;BME280;70071;55.130;61.268;2024-03-06T06:19:06;98488.00;;;6.75;33.89
80164;BME280;70071;55.130;61.268;2024-03-06T06:21:32;98490.38;;;6.93;33.46
80164;BME280;70071;55.130;61.268;2024-03-06T06:23:59;98476.16;;;7.25;32.82
80164;BME280;70071;55.130;61.268;2024-03-06T06:26:25;98443.31;;;7.28;32.42
80164;BME280;70071;55.130;61.268;2024-03-06T06:28:51;98485.91;;;6.93;31.62
80164;BME280;70071;55.130;61.268;2024-03-06T06:31:16;98474.97;;;7.05;31.30
80164;BME280;70071;55.130;61.268;2024-03-06T06:33:42;98480.69;;;6.85;32.35
80164;BME280;70071;55.130;61.268;2024-03-06T06:36:11;98494.47;;;6.64;31.89
80164;BME280;70071;55.130;61.268;2024-03-06T06:38:37;98479.31;;;7.21;32.19
80164;BME280;70071;55.130;61.268;2024-03-06T06:41:03;98460.44;;;7.32;31.26
80164;BME280;70071;55.130;61.268;2024-03-06T06:43:29;98467.50;;;7.40;31.14
80164;BME280;70071;55.130;61.268;2024-03-06T06:45:55;98493.53;;;6.49;32.18
80164;BME280;70071;55.130;61.268;2024-03-06T06:48:21;98472.16;;;6.35;32.31
80164;BME280;70071;55.130;61.268;2024-03-06T06:50:48;98466.47;;;7.18;31.60
80164;BME280;70071;55.130;61.268;2024-03-06T06:53:14;98443.69;;;7.02;30.39
80164;BME280;70071;55.130;61.268;2024-03-06T06:55:40;98469.22;;;7.01;31.37
80164;BME280;70071;55.130;61.268;2024-03-06T06:58:06;98469.25;;;6.22;31.83
80164;BME280;70071;55.130;61.268;2024-03-06T07:00:33;98444.13;;;7.05;31.58
80164;BME280;70071;55.130;61.268;2024-03-06T07:02:59;98461.25;;;7.09;29.49
80164;BME280;70071;55.130;61.268;2024-03-06T07:05:25;98458.38;;;6.96;29.71
80164;BME280;70071;55.130;61.268;2024-03-06T07:07:52;98456.22;;;7.46;29.67
80164;BME280;70071;55.130;61.268;2024-03-06T07:10:18;98464.53;;;7.96;29.06
80164;BME280;70071;55.130;61.268;2024-03-06T07:12:44;98457.97;;;8.07;28.11
80164;BME280;70071;55.130;61.268;2024-03-06T07:15:10;98470.00;;;8.39;29.08
80164;BME280;70071;55.130;61.268;2024-03-06T07:17:37;98475.09;;;8.41;29.06
80164;BME280;70071;55.130;61.268;2024-03-06T07:20:03;98460.44;;;8.38;28.49
80164;BME280;70071;55.130;61.268;2024-03-06T07:22:31;98441.00;;;8.01;28.18
80164;BME280;70071;55.130;61.268;2024-03-06T07:24:57;98465.69;;;7.93;28.23
80164;BME280;70071;55.130;61.268;2024-03-06T07:27:23;98456.34;;;8.21;28.54
80164;BME280;70071;55.130;61.268;2024-03-06T07:29:48;98479.94;;;8.37;28.75
80164;BME280;70071;55.130;61.268;2024-03-06T07:32:14;98442.84;;;8.45;27.80
80164;BME280;70071;55.130;61.268;2024-03-06T07:34:40;98467.00;;;8.27;27.04
80164;BME280;70071;55.130;61.268;2024-03-06T07:37:06;98459.09;;;8.57;28.21
80164;BME280;70071;55.130;61.268;2024-03-06T07:39:32;98461.44;;;8.22;27.66
80164;BME280;70071;55.130;61.268;2024-03-06T07:41:58;98450.34;;;8.57;27.42
80164;BME280;70071;55.130;61.268;2024-03-06T07:44:24;98440.50;;;8.50;26.46
80164;BME280;70071;55.130;61.268;2024-03-06T07:46:50;98444.84;;;8.73;27.57
80164;BME280;70071;55.130;61.268;2024-03-06T07:49:16;98434.09;;;8.60;27.25
80164;BME280;70071;55.130;61.268;2024-03-06T07:51:42;98456.00;;;8.53;26.34
80164;BME280;70071;55.130;61.268;2024-03-06T07:54:08;98449.22;;;8.36;26.48
80164;BME280;70071;55.130;61.268;2024-03-06T07:56:34;98441.84;;;7.02;27.17
80164;BME280;70071;55.130;61.268;2024-03-06T07:59:01;98448.94;;;8.61;26.61
80164;BME280;70071;55.130;61.268;2024-03-06T08:01:27;98464.53;;;8.70;25.61
80164;BME280;70071;55.130;61.268;2024-03-06T08:03:57;98414.31;;;8.26;26.26
80164;BME280;70071;55.130;61.268;2024-03-06T08:06:23;98437.00;;;7.90;26.89
80164;BME280;70071;55.130;61.268;2024-03-06T08:08:49;98441.09;;;8.38;25.87
80164;BME280;70071;55.130;61.268;2024-03-06T08:11:15;98425.59;;;8.05;26.23
80164;BME280;70071;55.130;61.268;2024-03-06T08:13:41;98451.16;;;7.59;27.40
80164;BME280;70071;55.130;61.268;2024-03-06T08:16:07;98429.28;;;8.18;26.67
80164;BME280;70071;55.130;61.268;2024-03-06T08:18:34;98454.69;;;8.79;26.95
80164;BME280;70071;55.130;61.268;2024-03-06T08:21:01;98441.50;;;8.86;26.83
80164;BME280;70071;55.130;61.268;2024-03-06T08:23:29;98434.63;;;8.70;25.87
80164;BME280;70071;55.130;61.268;2024-03-06T08:25:56;98440.59;;;9.37;26.58
80164;BME280;70071;55.130;61.268;2024-03-06T08:28:22;98416.00;;;9.43;26.29
80164;BME280;70071;55.130;61.268;2024-03-06T08:30:49;98414.97;;;9.66;25.87
80164;BME280;70071;55.130;61.268;2024-03-06T08:33:14;98451.56;;;9.55;26.23
80164;BME280;70071;55.130;61.268;2024-03-06T08:35:41;98443.41;;;10.13;25.89
80164;BME280;70071;55.130;61.268;2024-03-06T08:38:07;98423.38;;;10.04;25.54
80164;BME280;70071;55.130;61.268;2024-03-06T08:40:34;98444.75;;;9.74;25.09
80164;BME280;70071;55.130;61.268;2024-03-06T08:43:00;98386.50;;;9.46;25.54
80164;BME280;70071;55.130;61.268;2024-03-06T08:45:26;98412.25;;;9.59;26.10
80164;BME280;70071;55.130;61.268;2024-03-06T08:47:52;98431.25;;;9.63;26.25
80164;BME280;70071;55.130;61.268;2024-03-06T08:50:21;98401.88;;;9.92;26.16
80164;BME280;70071;55.130;61.268;2024-03-06T08:52:47;98413.31;;;9.65;25.19
80164;BME280;70071;55.130;61.268;2024-03-06T08:55:13;98398.22;;;9.93;25.84
80164;BME280;70071;55.130;61.268;2024-03-06T08:57:39;98445.31;;;8.62;25.38
80164;BME280;70071;55.130;61.268;2024-03-06T09:00:07;98436.38;;;8.33;25.47
80164;BME280;70071;55.130;61.268;2024-03-06T09:02:37;98439.69;;;8.86;25.36
80164;BME280;70071;55.130;61.268;2024-03-06T09:05:07;98426.91;;;8.39;25.73
80164;BME280;70071;55.130;61.268;2024-03-06T09:07:36;98395.81;;;8.56;25.05
80164;BME280;70071;55.130;61.268;2024-03-06T09:10:09;98414.78;;;9.67;24.26
80164;BME280;70071;55.130;61.268;2024-03-06T09:12:36;98382.94;;;9.60;24.38
80164;BME280;70071;55.130;61.268;2024-03-06T09:15:02;98418.91;;;9.76;23.90
80164;BME280;70071;55.130;61.268;2024-03-06T09:17:29;98406.09;;;9.30;24.30
80164;BME280;70071;55.130;61.268;2024-03-06T09:19:56;98428.00;;;9.39;24.27
80164;BME280;70071;55.130;61.268;2024-03-06T09:22:21;98405.38;;;8.57;24.47
80164;BME280;70071;55.130;61.268;2024-03-06T09:24:48;98400.75;;;7.84;24.58
80164;BME280;70071;55.130;61.268;2024-03-06T09:27:17;98372.84;;;8.41;25.31
80164;BME280;70071;55.130;61.268;2024-03-06T09:29:43;98406.19;;;7.68;25.44
80164;BME280;70071;55.130;61.268;2024-03-06T09:32:10;98430.16;;;6.97;27.02
80164;BME280;70071;55.130;61.268;2024-03-06T09:34:38;98427.06;;;6.70;27.03
80164;BME280;70071;55.130;61.268;2024-03-06T09:37:04;98402.44;;;7.47;26.84
80164;BME280;70071;55.130;61.268;2024-03-06T09:39:31;98399.50;;;7.42;26.03
80164;BME280;70071;55.130;61.268;2024-03-06T09:41:57;98355.28;;;7.59;25.82
80164;BME280;70071;55.130;61.268;2024-03-06T09:44:23;98392.16;;;7.97;27.92
80164;BME280;70071;55.130;61.268;2024-03-06T09:46:49;98400.09;;;8.57;28.57
80164;BME280;70071;55.130;61.268;2024-03-06T09:49:17;98433.09;;;9.40;27.89
80164;BME280;70071;55.130;61.268;2024-03-06T09:51:47;98421.50;;;9.70;27.89
80164;BME280;70071;55.130;61.268;2024-03-06T09:54:17;98390.50;;;9.99;26.49
80164;BME280;70071;55.130;61.268;2024-03-06T09:56:44;98410.91;;;9.98;27.29
80164;BME280;70071;55.130;61.268;2024-03-06T09:59:11;98408.53;;;10.10;27.09
80164;BME280;70071;55.130;61.268;2024-03-06T10:01:43;98396.94;;;9.54;27.76
80164;BME280;70071;55.130;61.268;2024-03-06T10:04:22;98387.31;;;9.47;28.04
80164;BME280;70071;55.130;61.268;2024-03-06T10:06:49;98416.66;;;9.23;27.23
80164;BME280;70071;55.130;61.268;2024-03-06T10:09:18;98423.00;;;10.42;25.92
80164;BME280;70071;55.130;61.268;2024-03-06T10:11:45;98388.72;;;10.47;25.98
80164;BME280;70071;55.130;61.268;2024-03-06T10:14:11;98420.25;;;10.71;25.34
80164;BME280;70071;55.130;61.268;2024-03-06T10:16:38;98377.78;;;9.52;26.31
80164;BME280;70071;55.130;61.268;2024-03-06T10:19:16;98414.03;;;10.50;25.92
80164;BME280;70071;55.130;61.268;2024-03-06T10:21:49;98419.00;;;10.60;25.00
80164;BME280;70071;55.130;61.268;2024-03-06T10:24:27;98391.66;;;10.73;24.49
80164;BME280;70071;55.130;61.268;2024-03-06T10:26:58;98408.72;;;11.12;24.71
80164;BME280;70071;55.130;61.268;2024-03-06T10:29:27;98419.22;;;10.65;24.02
80164;BME280;70071;55.130;61.268;2024-03-06T10:31:57;98416.09;;;11.36;23.92
80164;BME280;70071;55.130;61.268;2024-03-06T10:34:25;98405.63;;;11.75;23.77
80164;BME280;70071;55.130;61.268;2024-03-06T10:37:01;98405.53;;;12.42;23.07
80164;BME280;70071;55.130;61.268;2024-03-06T10:39:42;98376.19;;;12.03;21.91
80164;BME280;70071;55.130;61.268;2024-03-06T10:42:12;98387.75;;;12.29;21.27
80164;BME280;70071;55.130;61.268;2024-03-06T10:44:44;98384.19;;;11.56;21.11
80164;BME280;70071;55.130;61.268;2024-03-06T10:47:13;98400.72;;;10.37;21.50
80164;BME280;70071;55.130;61.268;2024-03-06T10:49:40;98382.22;;;10.50;21.65
80164;BME280;70071;55.130;61.268;2024-03-06T10:52:09;98403.72;;;10.75;21.01
80164;BME280;70071;55.130;61.268;2024-03-06T10:54:35;98375.28;;;9.72;21.78
80164;BME280;70071;55.130;61.268;2024-03-06T10:57:04;98406.06;;;11.25;20.80
80164;BME280;70071;55.130;61.268;2024-03-06T10:59:31;98408.72;;;11.25;20.08
80164;BME280;70071;55.130;61.268;2024-03-06T11:01:58;98422.91;;;10.77;20.29
80164;BME280;70071;55.130;61.268;2024-03-06T11:04:28;98418.00;;;10.81;20.86
80164;BME280;70071;55.130;61.268;2024-03-06T11:06:56;98394.63;;;11.18;20.14
80164;BME280;70071;55.130;61.268;2024-03-06T11:09:37;98388.63;;;10.76;19.64
80164;BME280;70071;55.130;61.268;2024-03-06T11:12:07;98403.19;;;11.13;19.97
80164;BME280;70071;55.130;61.268;2024-03-06T11:14:36;98328.41;;;10.90;19.92
80164;BME280;70071;55.130;61.268;2024-03-06T11:17:05;98385.41;;;11.14;19.86
80164;BME280;70071;55.130;61.268;2024-03-06T11:28:22;98410.13;;;11.88;18.99
80164;BME280;70071;55.130;61.268;2024-03-06T11:38:58;98403.59;;;13.83;17.66
80164;BME280;70071;55.130;61.268;2024-03-06T11:41:29;98394.91;;;13.12;17.84
80164;BME280;70071;55.130;61.268;2024-03-06T11:43:59;98407.09;;;13.84;17.27
80164;BME280;70071;55.130;61.268;2024-03-06T11:46:47;98399.38;;;13.19;16.99
80164;BME280;70071;55.130;61.268;2024-03-06T11:49:15;98371.88;;;13.75;18.54
80164;BME280;70071;55.130;61.268;2024-03-06T11:51:44;98390.25;;;15.06;17.31
80164;BME280;70071;55.130;61.268;2024-03-06T11:54:11;98396.56;;;13.89;16.43
80164;BME280;70071;55.130;61.268;2024-03-06T11:56:39;98393.03;;;14.14;16.05
80164;BME280;70071;55.130;61.268;2024-03-06T11:59:06;98409.72;;;14.65;16.52
80164;BME280;70071;55.130;61.268;2024-03-06T12:01:36;98372.63;;;14.01;16.53
80164;BME280;70071;55.130;61.268;2024-03-06T12:04:02;98387.94;;;13.11;17.50
80164;BME280;70071;55.130;61.268;2024-03-06T12:06:32;98401.81;;;12.88;17.26
80164;BME280;70071;55.130;61.268;2024-03-06T12:08:58;98394.91;;;12.35;17.19
80164;BME280;70071;55.130;61.268;2024-03-06T12:11:24;98384.94;;;13.83;16.89
80164;BME280;70071;55.130;61.268;2024-03-06T12:13:51;98403.56;;;13.40;16.77
80164;BME280;70071;55.130;61.268;2024-03-06T12:16:18;98385.00;;;14.69;16.27
80164;BME280;70071;55.130;61.268;2024-03-06T12:18:43;98381.94;;;14.84;15.99
80164;BME280;70071;55.130;61.268;2024-03-06T12:21:12;98391.34;;;15.29;15.71
80164;BME280;70071;55.130;61.268;2024-03-06T12:23:41;98393.63;;;15.14;15.84
80164;BME280;70071;55.130;61.268;2024-03-06T12:26:09;98410.03;;;12.87;17.42
80164;BME280;70071;55.130;61.268;2024-03-06T12:28:36;98394.34;;;13.42;17.17
80164;BME280;70071;55.130;61.268;2024-03-06T12:31:04;98403.22;;;11.33;18.66
80164;BME280;70071;55.130;61.268;2024-03-06T12:33:33;98415.03;;;12.18;18.02
80164;BME280;70071;55.130;61.268;2024-03-06T12:36:04;98396.66;;;11.63;18.66
80164;BME280;70071;55.130;61.268;2024-03-06T12:38:31;98395.25;;;11.60;18.82
80164;BME280;70071;55.130;61.268;2024-03-06T12:40:57;98399.41;;;9.84;19.77
80164;BME280;70071;55.130;61.268;2024-03-06T12:43:24;98415.88;;;11.18;19.06
80164;BME280;70071;55.130;61.268;2024-03-06T12:45:50;98404.09;;;10.59;19.14
80164;BME280;70071;55.130;61.268;2024-03-06T12:48:16;98375.34;;;10.21;19.77
80164;BME280;70071;55.130;61.268;2024-03-06T12:50:42;98397.47;;;11.16;19.01
80164;BME280;70071;55.130;61.268;2024-03-06T12:53:08;98362.34;;;11.41;19.15
80164;BME280;70071;55.130;61.268;2024-03-06T12:55:34;98409.28;;;13.68;17.75
80164;BME280;70071;55.130;61.268;2024-03-06T12:58:01;98400.56;;;12.59;17.81
80164;BME280;70071;55.130;61.268;2024-03-06T13:00:28;98401.44;;;13.17;17.51
80164;BME280;70071;55.130;61.268;2024-03-06T13:02:54;98417.97;;;13.57;17.43
80164;BME280;70071;55.130;61.268;2024-03-06T13:05:20;98407.91;;;11.45;18.59
80164;BME280;70071;55.130;61.268;2024-03-06T13:07:45;98397.78;;;9.90;20.86
80164;BME280;70071;55.130;61.268;2024-03-06T13:10:13;98399.94;;;9.23;21.43
80164;BME280;70071;55.130;61.268;2024-03-06T13:12:39;98390.06;;;9.10;21.45
80164;BME280;70071;55.130;61.268;2024-03-06T13:15:05;98403.72;;;8.41;22.18